createdAt,value
2016-05-06T00:00:03.820Z,14.79
2016-05-06T00:01:10.150Z,14.77
2016-05-06T00:02:03.964Z,14.79
2016-05-06T00:03:12.828Z,14.7
2016-05-06T00:04:06.831Z,14.7
2016-05-06T00:05:06.598Z,14.63
2016-05-06T00:06:03.897Z,14.68
2016-05-06T00:07:03.666Z,14.63
2016-05-06T00:08:03.590Z,14.59
2016-05-06T00:09:06.766Z,14.62
2016-05-06T00:10:03.815Z,14.66
2016-05-06T00:11:03.630Z,14.62
2016-05-06T00:12:06.273Z,14.66
2016-05-06T00:13:07.214Z,14.63
2016-05-06T00:14:03.326Z,14.62
2016-05-06T00:15:03.266Z,14.61
2016-05-06T00:16:03.206Z,14.58
2016-05-06T00:17:03.177Z,14.59
2016-05-06T00:18:03.132Z,14.59
2016-05-06T00:19:02.918Z,14.55
2016-05-06T00:20:03.029Z,14.52
2016-05-06T00:21:02.977Z,14.48
2016-05-06T00:22:02.778Z,14.43
2016-05-06T00:23:02.858Z,14.41
2016-05-06T00:24:05.830Z,14.4
2016-05-06T00:25:05.785Z,14.45
2016-05-06T00:26:06.195Z,14.48
2016-05-06T00:27:02.541Z,14.44
2016-05-06T00:28:05.685Z,14.41
2016-05-06T00:29:05.796Z,14.41
2016-05-06T00:30:02.596Z,14.45
2016-05-06T00:31:05.349Z,14.4
2016-05-06T00:32:05.648Z,14.43
2016-05-06T00:33:05.401Z,14.43
2016-05-06T00:34:02.357Z,14.45
2016-05-06T00:35:05.359Z,14.41
2016-05-06T00:36:02.269Z,14.38
2016-05-06T00:37:08.412Z,14.34
2016-05-06T00:38:05.227Z,14.41
2016-05-06T00:39:05.323Z,14.36
2016-05-06T00:40:05.295Z,14.44
2016-05-06T00:41:02.860Z,14.37
2016-05-06T00:42:04.956Z,14.38
2016-05-06T00:43:08.131Z,14.36
2016-05-06T00:44:08.072Z,14.38
2016-05-06T00:45:01.699Z,14.4
2016-05-06T00:46:01.608Z,14.45
2016-05-06T00:47:04.719Z,14.36
2016-05-06T00:48:10.738Z,14.26
2016-05-06T00:49:07.741Z,14.33
2016-05-06T00:50:01.478Z,14.33
2016-05-06T00:51:04.246Z,14.3
2016-05-06T00:52:04.499Z,14.26
2016-05-06T00:53:01.283Z,14.34
2016-05-06T00:54:04.380Z,14.3
2016-05-06T00:55:01.351Z,14.26
2016-05-06T00:56:02.276Z,14.2
2016-05-06T00:57:01.247Z,14.25
2016-05-06T00:58:01.046Z,14.08
2016-05-06T00:59:01.159Z,14.12
2016-05-06T01:00:01.098Z,14.15
2016-05-06T01:01:03.915Z,14.05
2016-05-06T01:02:01.026Z,14.04
2016-05-06T01:03:06.966Z,14.03
2016-05-06T01:04:00.906Z,14.03
2016-05-06T01:05:00.878Z,14.03
2016-05-06T01:06:00.709Z,13.94
2016-05-06T01:07:03.774Z,13.94
2016-05-06T01:08:00.933Z,13.95
2016-05-06T01:09:00.654Z,13.95
2016-05-06T01:10:03.657Z,13.89
2016-05-06T01:11:01.862Z,13.93
2016-05-06T01:12:00.506Z,13.95
2016-05-06T01:13:00.461Z,13.89
2016-05-06T01:14:00.418Z,13.91
2016-05-06T01:15:00.358Z,13.93
2016-05-06T01:16:00.173Z,13.87
2016-05-06T01:17:06.285Z,13.93
2016-05-06T01:18:03.241Z,13.87
2016-05-06T01:19:00.244Z,13.95
2016-05-06T01:20:00.122Z,13.91
2016-05-06T01:21:00.093Z,13.87
2016-05-06T01:22:06.235Z,13.95
2016-05-06T01:22:59.989Z,13.93
2016-05-06T01:24:02.929Z,13.79
2016-05-06T01:24:59.947Z,13.91
2016-05-06T01:25:59.824Z,13.83
2016-05-06T01:26:59.797Z,13.85
2016-05-06T01:28:02.737Z,13.76
2016-05-06T01:28:59.693Z,13.78
2016-05-06T01:30:02.476Z,13.78
2016-05-06T01:30:59.588Z,13.7
2016-05-06T01:31:59.560Z,13.75
2016-05-06T01:32:59.500Z,13.75
2016-05-06T01:33:59.659Z,13.75
2016-05-06T01:35:02.411Z,13.67
2016-05-06T01:36:11.384Z,13.75
2016-05-06T01:36:59.292Z,13.73
2016-05-06T01:37:59.263Z,13.75
2016-05-06T01:38:59.422Z,13.71
2016-05-06T01:39:59.160Z,13.68
2016-05-06T01:40:59.131Z,13.8
2016-05-06T01:42:02.070Z,13.7
2016-05-06T01:42:59.012Z,13.83
2016-05-06T01:43:58.983Z,13.7
2016-05-06T01:44:58.908Z,13.68
2016-05-06T01:45:58.722Z,13.75
2016-05-06T01:46:58.663Z,13.71
2016-05-06T01:47:58.603Z,13.78
2016-05-06T01:49:01.747Z,13.79
2016-05-06T01:50:01.655Z,13.71
2016-05-06T01:50:58.626Z,13.71
2016-05-06T01:51:58.567Z,13.71
2016-05-06T01:52:58.523Z,13.7
2016-05-06T01:54:01.494Z,13.64
2016-05-06T01:55:01.449Z,13.6
2016-05-06T01:56:02.563Z,13.65
2016-05-06T01:56:58.315Z,13.61
2016-05-06T01:57:58.489Z,13.64
2016-05-06T01:58:58.226Z,13.57
2016-05-06T02:00:01.198Z,13.57
2016-05-06T02:01:01.232Z,13.55
2016-05-06T02:02:01.109Z,13.6
2016-05-06T02:03:01.065Z,13.62
2016-05-06T02:04:03.676Z,13.61
2016-05-06T02:05:00.962Z,13.62
2016-05-06T02:06:03.745Z,13.58
2016-05-06T02:06:58.060Z,13.55
2016-05-06T02:07:57.469Z,13.55
2016-05-06T02:09:00.753Z,13.49
2016-05-06T02:10:00.771Z,13.47
2016-05-06T02:10:58.117Z,13.47
2016-05-06T02:12:00.995Z,13.46
2016-05-06T02:12:57.561Z,13.45
2016-05-06T02:13:57.564Z,13.42
2016-05-06T02:14:57.863Z,13.39
2016-05-06T02:16:00.600Z,13.36
2016-05-06T02:16:57.337Z,13.31
2016-05-06T02:17:57.715Z,13.28
2016-05-06T02:18:57.264Z,13.36
2016-05-06T02:20:00.220Z,13.45
2016-05-06T02:20:57.145Z,13.36
2016-05-06T02:22:00.100Z,13.26
2016-05-06T02:22:56.931Z,13.37
2016-05-06T02:24:06.062Z,13.45
2016-05-06T02:24:59.972Z,13.4
2016-05-06T02:25:58.100Z,13.45
2016-05-06T02:26:56.884Z,13.43
2016-05-06T02:27:59.823Z,13.43
2016-05-06T02:28:56.811Z,13.42
2016-05-06T02:29:56.906Z,13.4
2016-05-06T02:30:56.707Z,13.49
2016-05-06T02:31:56.616Z,13.39
2016-05-06T02:32:57.243Z,13.45
2016-05-06T02:33:56.527Z,13.46
2016-05-06T02:35:02.717Z,13.45
2016-05-06T02:35:56.267Z,13.45
2016-05-06T02:36:59.379Z,13.45
2016-05-06T02:37:56.523Z,13.39
2016-05-06T02:38:56.260Z,13.43
2016-05-06T02:39:56.216Z,13.4
2016-05-06T02:40:56.515Z,13.33
2016-05-06T02:41:56.126Z,13.26
2016-05-06T02:42:56.066Z,13.26
2016-05-06T02:43:59.008Z,13.27
2016-05-06T02:44:55.979Z,13.3
2016-05-06T02:45:55.965Z,13.23
2016-05-06T02:46:55.703Z,13.24
2016-05-06T02:47:55.815Z,13.23
2016-05-06T02:48:55.786Z,13.21
2016-05-06T02:49:55.726Z,13.23
2016-05-06T02:50:55.683Z,13.3
2016-05-06T02:51:58.638Z,13.2
2016-05-06T02:53:01.562Z,13.27
2016-05-06T02:54:01.551Z,13.3
2016-05-06T02:54:58.489Z,13.19
2016-05-06T02:55:55.931Z,13.37
2016-05-06T02:56:55.386Z,13.24
2016-05-06T02:57:55.545Z,13.19
2016-05-06T02:58:55.126Z,13.28
2016-05-06T02:59:55.442Z,13.24
2016-05-06T03:00:58.053Z,13.3
2016-05-06T03:01:55.149Z,13.24
2016-05-06T03:02:55.121Z,13.26
2016-05-06T03:03:54.889Z,13.24
2016-05-06T03:04:58.033Z,13.3
2016-05-06T03:05:55.253Z,13.28
2016-05-06T03:06:54.975Z,13.21
2016-05-06T03:07:55.056Z,13.28
2016-05-06T03:08:54.793Z,13.27
2016-05-06T03:09:57.749Z,13.27
2016-05-06T03:10:55.299Z,13.28
2016-05-06T03:11:57.661Z,13.27
2016-05-06T03:12:57.804Z,13.3
2016-05-06T03:13:54.385Z,13.31
2016-05-06T03:14:57.731Z,13.24
2016-05-06T03:15:57.313Z,13.31
2016-05-06T03:16:57.268Z,13.26
2016-05-06T03:17:54.365Z,13.28
2016-05-06T03:18:54.304Z,13.26
2016-05-06T03:19:54.323Z,13.36
2016-05-06T03:21:00.216Z,13.27
2016-05-06T03:21:54.015Z,13.3
2016-05-06T03:22:54.096Z,13.31
2016-05-06T03:23:54.052Z,13.36
2016-05-06T03:24:54.212Z,13.28
2016-05-06T03:25:57.511Z,13.28
2016-05-06T03:26:59.889Z,13.3
2016-05-06T03:27:56.876Z,13.23
2016-05-06T03:28:53.706Z,13.27
2016-05-06T03:29:53.772Z,13.3
2016-05-06T03:30:54.025Z,13.36
2016-05-06T03:31:53.870Z,13.27
2016-05-06T03:32:56.623Z,13.39
2016-05-06T03:33:53.579Z,13.36
2016-05-06T03:34:53.519Z,13.26
2016-05-06T03:35:56.491Z,13.28
2016-05-06T03:36:56.416Z,13.24
2016-05-06T03:37:53.372Z,13.3
2016-05-06T03:38:53.327Z,13.23
2016-05-06T03:39:53.267Z,13.19
2016-05-06T03:40:53.442Z,13.27
2016-05-06T03:41:56.390Z,13.17
2016-05-06T03:42:56.142Z,13.21
2016-05-06T03:43:56.564Z,13.26
2016-05-06T03:44:56.119Z,13.21
2016-05-06T03:45:59.200Z,13.23
2016-05-06T03:46:55.969Z,13.26
2016-05-06T03:47:56.378Z,13.23
2016-05-06T03:48:56.021Z,13.24
2016-05-06T03:49:52.774Z,13.17
2016-05-06T03:50:52.745Z,13.23
2016-05-06T03:51:55.669Z,13.24
2016-05-06T03:52:52.626Z,13.17
2016-05-06T03:53:52.612Z,13.26
2016-05-06T03:54:52.382Z,13.21
2016-05-06T03:55:52.759Z,13.17
2016-05-06T03:56:55.449Z,13.19
2016-05-06T03:57:55.373Z,13.2
2016-05-06T03:58:55.173Z,13.17
2016-05-06T03:59:55.270Z,13.23
2016-05-06T04:00:52.241Z,13.17
2016-05-06T04:01:58.196Z,13.13
2016-05-06T04:02:55.183Z,13.05
2016-05-06T04:03:58.109Z,13.16
2016-05-06T04:04:55.064Z,13.02
2016-05-06T04:05:54.988Z,13.05
2016-05-06T04:06:54.976Z,13.12
2016-05-06T04:07:52.104Z,13.09
2016-05-06T04:08:54.856Z,13.12
2016-05-06T04:09:51.780Z,13.01
2016-05-06T04:10:52.112Z,13.12
2016-05-06T04:11:51.691Z,13.12
2016-05-06T04:12:54.867Z,13.13
2016-05-06T04:13:54.603Z,13.01
2016-05-06T04:14:54.544Z,13.12
2016-05-06T04:15:54.500Z,13.06
2016-05-06T04:16:54.268Z,12.99
2016-05-06T04:17:51.396Z,13.13
2016-05-06T04:18:51.351Z,13.12
2016-05-06T04:19:57.527Z,13.05
2016-05-06T04:20:54.263Z,13.06
2016-05-06T04:21:54.219Z,13.01
2016-05-06T04:22:51.159Z,12.95
2016-05-06T04:23:51.099Z,12.95
2016-05-06T04:24:51.040Z,13.05
2016-05-06T04:25:57.057Z,12.99
2016-05-06T04:26:53.951Z,12.93
2016-05-06T04:27:54.423Z,12.87
2016-05-06T04:28:50.848Z,12.83
2016-05-06T04:29:50.803Z,12.91
2016-05-06T04:30:53.962Z,12.87
2016-05-06T04:31:56.731Z,12.91
2016-05-06T04:32:50.671Z,12.91
2016-05-06T04:33:53.767Z,12.87
2016-05-06T04:34:50.567Z,12.9
2016-05-06T04:35:50.523Z,12.86
2016-05-06T04:36:53.478Z,12.87
2016-05-06T04:37:53.418Z,12.83
2016-05-06T04:38:56.561Z,12.87
2016-05-06T04:39:50.314Z,12.88
2016-05-06T04:40:50.176Z,12.9
2016-05-06T04:41:53.414Z,12.88
2016-05-06T04:42:53.260Z,12.9
2016-05-06T04:43:53.325Z,12.88
2016-05-06T04:44:50.062Z,12.91
2016-05-06T04:45:56.033Z,12.88
2016-05-06T04:46:52.817Z,12.86
2016-05-06T04:47:55.758Z,12.88
2016-05-06T04:48:55.745Z,12.86
2016-05-06T04:49:52.841Z,12.95
2016-05-06T04:50:52.985Z,12.88
2016-05-06T04:51:49.815Z,12.94
2016-05-06T04:52:49.880Z,12.98
2016-05-06T04:53:52.665Z,12.98
2016-05-06T04:54:55.589Z,12.99
2016-05-06T04:55:52.248Z,12.98
2016-05-06T04:56:52.485Z,12.91
2016-05-06T04:57:49.410Z,13.01
2016-05-06T04:58:49.365Z,13.06
2016-05-06T04:59:49.368Z,12.98
2016-05-06T05:00:52.479Z,13.05
2016-05-06T05:01:52.546Z,13.08
2016-05-06T05:02:52.173Z,13.11
2016-05-06T05:03:52.175Z,13.12
2016-05-06T05:04:52.101Z,13.2
2016-05-06T05:05:55.025Z,13.23
2016-05-06T05:06:48.981Z,13.2
2016-05-06T05:07:48.936Z,13.21
2016-05-06T05:08:48.737Z,13.19
2016-05-06T05:09:51.848Z,13.21
2016-05-06T05:10:52.718Z,13.27
2016-05-06T05:11:48.658Z,13.16
2016-05-06T05:12:54.489Z,13.23
2016-05-06T05:13:48.789Z,13.19
2016-05-06T05:14:48.792Z,13.27
2016-05-06T05:15:51.780Z,13.27
2016-05-06T05:16:57.784Z,13.23
2016-05-06T05:17:48.695Z,13.2
2016-05-06T05:19:00.714Z,13.23
2016-05-06T05:19:48.483Z,13.31
2016-05-06T05:20:51.467Z,13.28
2016-05-06T05:21:51.976Z,13.3
2016-05-06T05:22:51.516Z,13.24
2016-05-06T05:23:51.993Z,13.39
2016-05-06T05:24:48.284Z,13.4
2016-05-06T05:25:48.384Z,13.43
2016-05-06T05:26:48.343Z,13.46
2016-05-06T05:27:57.331Z,13.49
2016-05-06T05:28:51.103Z,13.47
2016-05-06T05:29:51.435Z,13.54
2016-05-06T05:30:48.345Z,13.64
2016-05-06T05:31:50.943Z,13.65
2016-05-06T05:32:51.274Z,13.64
2016-05-06T05:33:48.028Z,13.7
2016-05-06T05:34:47.891Z,13.64
2016-05-06T05:35:47.957Z,13.68
2016-05-06T05:36:48.068Z,13.68
2016-05-06T05:37:56.916Z,13.7
2016-05-06T05:38:50.982Z,13.7
2016-05-06T05:39:50.797Z,13.78
2016-05-06T05:40:48.128Z,13.87
2016-05-06T05:41:47.834Z,13.87
2016-05-06T05:42:47.571Z,13.89
2016-05-06T05:43:59.527Z,13.93
2016-05-06T05:44:50.483Z,13.94
2016-05-06T05:45:50.626Z,13.87
2016-05-06T05:46:47.379Z,14.03
2016-05-06T05:47:47.194Z,14.11
2016-05-06T05:48:47.291Z,14.05
2016-05-06T05:49:47.059Z,14.12
2016-05-06T05:50:50.062Z,14.16
2016-05-06T05:51:53.782Z,14.15
2016-05-06T05:52:47.473Z,14.28
2016-05-06T05:53:47.038Z,14.31
2016-05-06T05:54:46.994Z,14.26
2016-05-06T05:55:46.934Z,14.4
2016-05-06T05:56:46.765Z,14.31
2016-05-06T05:57:49.846Z,14.31
2016-05-06T05:58:49.645Z,14.37
2016-05-06T05:59:49.961Z,14.4
2016-05-06T06:00:46.698Z,14.48
2016-05-06T06:01:46.841Z,14.48
2016-05-06T06:02:46.594Z,14.53
2016-05-06T06:03:49.550Z,14.52
2016-05-06T06:04:46.489Z,14.66
2016-05-06T06:05:46.445Z,14.62
2016-05-06T06:06:46.401Z,14.61
2016-05-06T06:07:52.436Z,14.59
2016-05-06T06:08:49.156Z,14.73
2016-05-06T06:09:49.659Z,14.73
2016-05-06T06:10:46.068Z,14.81
2016-05-06T06:11:46.149Z,14.87
2016-05-06T06:12:48.949Z,14.93
2016-05-06T06:13:46.045Z,15
2016-05-06T06:14:52.048Z,14.94
2016-05-06T06:15:49.160Z,15.04
2016-05-06T06:16:48.599Z,15.1
2016-05-06T06:17:49.322Z,15.1
2016-05-06T06:18:48.887Z,15.14
2016-05-06T06:19:45.780Z,15.11
2016-05-06T06:20:51.799Z,15.12
2016-05-06T06:21:45.973Z,15.11
2016-05-06T06:22:48.648Z,15.11
2016-05-06T06:23:45.587Z,15.17
2016-05-06T06:24:45.529Z,15.29
2016-05-06T06:25:48.468Z,15.29
2016-05-06T06:26:51.362Z,15.27
2016-05-06T06:27:45.379Z,15.35
2016-05-06T06:28:48.351Z,15.37
2016-05-06T06:29:48.337Z,15.47
2016-05-06T06:30:45.232Z,15.45
2016-05-06T06:31:48.265Z,15.48
2016-05-06T06:32:44.986Z,15.51
2016-05-06T06:33:45.303Z,15.57
2016-05-06T06:34:45.023Z,15.54
2016-05-06T06:35:47.994Z,15.65
2016-05-06T06:36:44.951Z,15.7
2016-05-06T06:37:44.734Z,15.69
2016-05-06T06:38:45.191Z,15.66
2016-05-06T06:39:44.787Z,15.7
2016-05-06T06:40:45.227Z,15.66
2016-05-06T06:41:47.699Z,15.72
2016-05-06T06:42:47.872Z,15.8
2016-05-06T06:43:44.297Z,15.8
2016-05-06T06:44:47.613Z,15.83
2016-05-06T06:45:47.522Z,15.78
2016-05-06T06:46:47.463Z,15.76
2016-05-06T06:47:44.402Z,15.78
2016-05-06T06:48:47.577Z,15.78
2016-05-06T06:49:44.329Z,15.78
2016-05-06T06:50:44.269Z,15.81
2016-05-06T06:51:47.226Z,15.81
2016-05-06T06:52:47.213Z,15.81
2016-05-06T06:53:44.121Z,15.9
2016-05-06T06:54:56.124Z,15.91
2016-05-06T06:55:45.282Z,16.02
2016-05-06T06:56:47.629Z,16.03
2016-05-06T06:57:43.929Z,16.08
2016-05-06T06:58:46.931Z,16.21
2016-05-06T06:59:43.685Z,16.25
2016-05-06T07:00:46.796Z,16.25
2016-05-06T07:01:47.159Z,16.4
2016-05-06T07:02:46.693Z,16.46
2016-05-06T07:03:43.648Z,16.44
2016-05-06T07:04:46.603Z,16.44
2016-05-06T07:05:49.575Z,16.55
2016-05-06T07:06:43.516Z,16.64
2016-05-06T07:07:46.862Z,16.59
2016-05-06T07:08:43.411Z,16.66
2016-05-06T07:09:44.900Z,16.64
2016-05-06T07:10:46.167Z,16.69
2016-05-06T07:11:46.263Z,16.68
2016-05-06T07:12:43.063Z,16.69
2016-05-06T07:13:43.191Z,16.68
2016-05-06T07:14:49.130Z,16.87
2016-05-06T07:15:43.368Z,16.83
2016-05-06T07:16:45.808Z,16.84
2016-05-06T07:17:42.842Z,16.8
2016-05-06T07:18:46.142Z,16.83
2016-05-06T07:19:42.926Z,16.82
2016-05-06T07:20:45.850Z,16.89
2016-05-06T07:21:42.977Z,16.89
2016-05-06T07:22:51.673Z,16.92
2016-05-06T07:23:45.598Z,16.83
2016-05-06T07:24:42.662Z,16.95
2016-05-06T07:25:42.603Z,17.04
2016-05-06T07:26:42.403Z,17.13
2016-05-06T07:27:45.499Z,17.01
2016-05-06T07:28:45.454Z,17.13
2016-05-06T07:29:42.286Z,17.13
2016-05-06T07:30:48.601Z,17.17
2016-05-06T07:31:46.026Z,17.2
2016-05-06T07:32:42.498Z,17.3
2016-05-06T07:33:42.234Z,17.31
2016-05-06T07:34:42.252Z,17.27
2016-05-06T07:35:42.192Z,17.28
2016-05-06T07:36:42.117Z,17.37
2016-05-06T07:37:42.041Z,17.37
2016-05-06T07:38:41.997Z,17.37
2016-05-06T07:39:45.469Z,17.52
2016-05-06T07:40:41.722Z,17.5
2016-05-06T07:41:42.130Z,17.52
2016-05-06T07:42:44.821Z,17.56
2016-05-06T07:43:41.777Z,17.54
2016-05-06T07:44:41.732Z,17.63
2016-05-06T07:45:44.563Z,17.63
2016-05-06T07:46:41.613Z,17.66
2016-05-06T07:47:41.615Z,17.66
2016-05-06T07:48:41.728Z,17.66
2016-05-06T07:49:44.511Z,17.66
2016-05-06T07:50:47.670Z,17.66
2016-05-06T07:51:44.095Z,17.76
2016-05-06T07:52:41.363Z,17.78
2016-05-06T07:53:41.506Z,17.84
2016-05-06T07:54:41.134Z,17.88
2016-05-06T07:55:41.215Z,18.06
2016-05-06T07:56:41.452Z,18.06
2016-05-06T07:57:50.157Z,18.12
2016-05-06T07:58:43.927Z,18.21
2016-05-06T07:59:44.210Z,18.28
2016-05-06T08:00:46.837Z,18.3
2016-05-06T08:01:40.981Z,18.27
2016-05-06T08:02:43.921Z,18.36
2016-05-06T08:03:43.845Z,18.34
2016-05-06T08:04:41.192Z,18.28
2016-05-06T08:05:43.758Z,18.3
2016-05-06T08:06:46.901Z,18.37
2016-05-06T08:07:40.497Z,18.31
2016-05-06T08:08:46.672Z,18.36
2016-05-06T08:09:43.565Z,18.37
2016-05-06T08:10:40.521Z,18.36
2016-05-06T08:11:40.336Z,18.39
2016-05-06T08:12:43.432Z,18.39
2016-05-06T08:13:40.389Z,18.48
2016-05-06T08:14:40.313Z,18.43
2016-05-06T08:15:43.675Z,18.51
2016-05-06T08:16:43.427Z,18.48
2016-05-06T08:17:40.227Z,18.53
2016-05-06T08:18:40.136Z,18.53
2016-05-06T08:19:40.091Z,18.6
2016-05-06T08:20:40.063Z,18.64
2016-05-06T08:21:40.254Z,18.66
2016-05-06T08:22:40.147Z,18.64
2016-05-06T08:23:39.852Z,18.7
2016-05-06T08:24:43.309Z,18.73
2016-05-06T08:25:39.812Z,18.73
2016-05-06T08:26:39.814Z,18.79
2016-05-06T08:27:39.738Z,18.64
2016-05-06T08:28:39.726Z,18.67
2016-05-06T08:29:39.900Z,18.73
2016-05-06T08:30:42.590Z,18.63
2016-05-06T08:31:39.531Z,18.73
2016-05-06T08:32:45.346Z,18.74
2016-05-06T08:33:39.442Z,18.78
2016-05-06T08:34:39.414Z,18.78
2016-05-06T08:35:42.573Z,18.89
2016-05-06T08:36:42.325Z,18.92
2016-05-06T08:37:39.265Z,18.97
2016-05-06T08:38:39.408Z,18.92
2016-05-06T08:39:40.771Z,18.91
2016-05-06T08:40:45.445Z,18.96
2016-05-06T08:41:40.308Z,18.92
2016-05-06T08:42:44.872Z,19.07
2016-05-06T08:43:42.406Z,19.05
2016-05-06T08:44:39.144Z,19.07
2016-05-06T08:45:38.911Z,19.08
2016-05-06T08:46:38.852Z,19.09
2016-05-06T08:47:41.824Z,19.15
2016-05-06T08:48:38.982Z,19.15
2016-05-06T08:49:38.626Z,19.16
2016-05-06T08:50:38.660Z,19.26
2016-05-06T08:51:41.677Z,19.24
2016-05-06T08:52:41.572Z,19.34
2016-05-06T08:53:41.683Z,19.34
2016-05-06T08:54:38.483Z,19.42
2016-05-06T08:55:38.485Z,19.52
2016-05-06T08:56:38.488Z,19.45
2016-05-06T08:57:38.210Z,19.52
2016-05-06T08:58:38.166Z,19.53
2016-05-06T08:59:41.293Z,19.64
2016-05-06T09:00:38.421Z,19.64
2016-05-06T09:01:41.236Z,19.7
2016-05-06T09:02:41.115Z,19.77
2016-05-06T09:03:38.085Z,19.71
2016-05-06T09:04:38.042Z,19.78
2016-05-06T09:05:41.028Z,19.79
2016-05-06T09:06:40.953Z,19.87
2016-05-06T09:07:37.908Z,19.77
2016-05-06T09:08:37.848Z,19.84
2016-05-06T09:09:37.805Z,19.85
2016-05-06T09:10:37.776Z,19.87
2016-05-06T09:11:37.623Z,19.9
2016-05-06T09:12:40.703Z,19.94
2016-05-06T09:13:37.691Z,19.87
2016-05-06T09:14:40.739Z,19.97
2016-05-06T09:15:46.555Z,19.93
2016-05-06T09:16:38.011Z,19.93
2016-05-06T09:17:40.467Z,19.96
2016-05-06T09:18:37.704Z,19.93
2016-05-06T09:19:40.769Z,19.96
2016-05-06T09:20:43.537Z,19.99
2016-05-06T09:21:40.322Z,19.97
2016-05-06T09:22:40.246Z,19.93
2016-05-06T09:23:37.217Z,20
2016-05-06T09:24:37.002Z,20.12
2016-05-06T09:25:37.161Z,20.22
2016-05-06T09:26:38.679Z,20.17
2016-05-06T09:27:40.025Z,20.19
2016-05-06T09:28:39.856Z,20.24
2016-05-06T09:29:36.902Z,20.34
2016-05-06T09:30:36.874Z,20.37
2016-05-06T09:31:39.676Z,20.4
2016-05-06T09:32:36.770Z,20.46
2016-05-06T09:33:36.726Z,20.48
2016-05-06T09:34:36.682Z,20.49
2016-05-06T09:35:36.544Z,20.56
2016-05-06T09:36:36.593Z,20.59
2016-05-06T09:37:39.568Z,20.6
2016-05-06T09:38:36.412Z,20.66
2016-05-06T09:39:39.320Z,20.66
2016-05-06T09:40:36.401Z,20.68
2016-05-06T09:41:36.529Z,20.71
2016-05-06T09:42:36.312Z,20.68
2016-05-06T09:43:36.112Z,20.68
2016-05-06T09:44:36.256Z,20.68
2016-05-06T09:45:36.228Z,20.77
2016-05-06T09:46:36.339Z,20.67
2016-05-06T09:47:36.123Z,20.67
2016-05-06T09:48:36.079Z,20.71
2016-05-06T09:49:36.019Z,20.75
2016-05-06T09:50:35.802Z,20.85
2016-05-06T09:51:36.212Z,20.82
2016-05-06T09:52:35.933Z,20.85
2016-05-06T09:53:35.827Z,20.86
2016-05-06T09:54:35.642Z,20.86
2016-05-06T09:55:35.957Z,20.9
2016-05-06T09:56:35.616Z,20.95
2016-05-06T09:57:39.244Z,20.96
2016-05-06T09:58:35.590Z,20.98
2016-05-06T09:59:35.405Z,21.07
2016-05-06T10:00:38.345Z,21.1
2016-05-06T10:01:35.333Z,21.08
2016-05-06T10:02:35.960Z,21.15
2016-05-06T10:03:35.259Z,21.2
2016-05-06T10:04:38.419Z,21.15
2016-05-06T10:05:35.453Z,21.23
2016-05-06T10:06:49.443Z,21.19
2016-05-06T10:07:41.023Z,21.25
2016-05-06T10:08:35.179Z,21.23
2016-05-06T10:09:38.182Z,21.29
2016-05-06T10:10:34.935Z,21.29
2016-05-06T10:11:35.484Z,21.3
2016-05-06T10:12:38.034Z,21.32
2016-05-06T10:13:35.209Z,21.33
2016-05-06T10:14:35.134Z,21.4
2016-05-06T10:15:34.886Z,21.4
2016-05-06T10:16:34.826Z,21.47
2016-05-06T10:17:37.797Z,21.48
2016-05-06T10:18:34.738Z,21.53
2016-05-06T10:19:34.537Z,21.53
2016-05-06T10:20:34.633Z,21.54
2016-05-06T10:21:34.434Z,21.54
2016-05-06T10:22:34.561Z,21.56
2016-05-06T10:23:34.533Z,21.54
2016-05-06T10:24:34.488Z,21.5
2016-05-06T10:25:34.631Z,21.48
2016-05-06T10:26:34.619Z,21.62
2016-05-06T10:27:34.371Z,21.6
2016-05-06T10:28:37.155Z,21.54
2016-05-06T10:29:34.252Z,21.68
2016-05-06T10:30:34.441Z,21.68
2016-05-06T10:31:34.163Z,21.68
2016-05-06T10:32:34.166Z,21.58
2016-05-06T10:33:34.075Z,21.59
2016-05-06T10:34:33.921Z,21.66
2016-05-06T10:35:33.830Z,21.74
2016-05-06T10:36:34.286Z,21.74
2016-05-06T10:37:34.101Z,21.72
2016-05-06T10:38:37.088Z,21.69
2016-05-06T10:39:34.028Z,21.7
2016-05-06T10:40:33.781Z,21.7
2016-05-06T10:41:34.034Z,21.77
2016-05-06T10:42:36.693Z,21.81
2016-05-06T10:43:36.633Z,21.84
2016-05-06T10:44:36.604Z,21.84
2016-05-06T10:45:36.561Z,21.94
2016-05-06T10:46:36.531Z,22
2016-05-06T10:47:33.628Z,21.91
2016-05-06T10:48:33.428Z,21.96
2016-05-06T10:49:33.586Z,22.06
2016-05-06T10:50:33.340Z,22.14
2016-05-06T10:51:36.155Z,22.1
2016-05-06T10:52:33.235Z,22.01
2016-05-06T10:53:33.222Z,22
2016-05-06T10:54:45.025Z,22.18
2016-05-06T10:55:33.181Z,22.12
2016-05-06T10:56:34.309Z,22.22
2016-05-06T10:57:36.046Z,22.23
2016-05-06T10:58:35.986Z,22.23
2016-05-06T10:59:32.785Z,22.16
2016-05-06T11:00:32.914Z,22.25
2016-05-06T11:01:32.853Z,22.21
2016-05-06T11:02:32.825Z,22.26
2016-05-06T11:03:32.921Z,22.23
2016-05-06T11:04:32.737Z,22.26
2016-05-06T11:05:32.692Z,22.21
2016-05-06T11:06:32.648Z,22.33
2016-05-06T11:07:32.432Z,22.33
2016-05-06T11:08:32.638Z,22.37
2016-05-06T11:09:32.515Z,22.37
2016-05-06T11:10:32.674Z,22.46
2016-05-06T11:11:33.224Z,22.47
2016-05-06T11:12:35.649Z,22.52
2016-05-06T11:13:32.354Z,22.67
2016-05-06T11:14:35.295Z,22.56
2016-05-06T11:15:35.267Z,22.83
2016-05-06T11:16:32.222Z,22.8
2016-05-06T11:17:32.162Z,22.78
2016-05-06T11:18:32.118Z,22.88
2016-05-06T11:19:31.980Z,22.98
2016-05-06T11:20:32.264Z,23.08
2016-05-06T11:21:32.236Z,23.11
2016-05-06T11:22:35.176Z,23.17
2016-05-06T11:23:31.913Z,23.2
2016-05-06T11:24:31.852Z,23.34
2016-05-06T11:25:31.840Z,23.25
2016-05-06T11:26:32.436Z,23.29
2016-05-06T11:27:31.767Z,23.21
2016-05-06T11:28:32.177Z,23.21
2016-05-06T11:29:34.491Z,23.26
2016-05-06T11:30:31.650Z,23.37
2016-05-06T11:31:31.950Z,23.34
2016-05-06T11:32:31.515Z,23.37
2016-05-06T11:33:31.690Z,23.36
2016-05-06T11:34:31.911Z,23.44
2016-05-06T11:35:31.757Z,23.4
2016-05-06T11:36:31.589Z,23.51
2016-05-06T11:37:31.388Z,23.51
2016-05-06T11:38:31.312Z,23.56
2016-05-06T11:39:34.410Z,23.62
2016-05-06T11:40:31.177Z,23.64
2016-05-06T11:41:30.993Z,23.64
2016-05-06T11:42:31.089Z,23.7
2016-05-06T11:43:31.576Z,23.67
2016-05-06T11:44:31.016Z,23.74
2016-05-06T11:45:31.190Z,23.77
2016-05-06T11:46:30.787Z,23.85
2016-05-06T11:47:31.087Z,23.91
2016-05-06T11:48:30.886Z,23.92
2016-05-06T11:49:30.639Z,23.96
2016-05-06T11:50:30.751Z,24.06
2016-05-06T11:51:30.707Z,24.06
2016-05-06T11:52:30.537Z,24.09
2016-05-06T11:53:30.837Z,24.24
2016-05-06T11:54:30.590Z,24.18
2016-05-06T11:55:30.561Z,24.18
2016-05-06T11:56:30.595Z,24.09
2016-05-06T11:57:30.300Z,24.06
2016-05-06T11:58:30.476Z,24.1
2016-05-06T11:59:30.400Z,24.07
2016-05-06T12:00:30.449Z,24.11
2016-05-06T12:01:33.281Z,24.16
2016-05-06T12:02:33.299Z,24.14
2016-05-06T12:03:30.411Z,24.19
2016-05-06T12:04:30.366Z,24.19
2016-05-06T12:05:33.152Z,24.34
2016-05-06T12:06:29.779Z,24.31
2016-05-06T12:07:30.062Z,24.29
2016-05-06T12:08:30.050Z,24.31
2016-05-06T12:09:30.208Z,24.34
2016-05-06T12:10:29.774Z,24.56
2016-05-06T12:11:29.963Z,24.47
2016-05-06T12:12:29.763Z,24.51
2016-05-06T12:13:29.985Z,24.53
2016-05-06T12:14:29.753Z,24.46
2016-05-06T12:15:29.771Z,24.61
2016-05-06T12:16:29.711Z,24.56
2016-05-06T12:17:29.480Z,24.44
2016-05-06T12:18:29.607Z,24.59
2016-05-06T12:19:29.517Z,24.56
2016-05-06T12:20:29.785Z,24.75
2016-05-06T12:21:30.006Z,24.77
2016-05-06T12:22:29.290Z,24.79
2016-05-06T12:23:32.215Z,24.93
2016-05-06T12:24:29.155Z,24.86
2016-05-06T12:25:29.298Z,24.77
2016-05-06T12:26:31.176Z,24.75
2016-05-06T12:27:29.195Z,24.85
2016-05-06T12:28:29.181Z,25
2016-05-06T12:29:39.246Z,25.07
2016-05-06T12:30:29.140Z,25.14
2016-05-06T12:31:28.908Z,25.21
2016-05-06T12:32:28.895Z,25.31
2016-05-06T12:33:28.820Z,25.3
2016-05-06T12:34:32.119Z,25.33
2016-05-06T12:35:28.888Z,25.31
2016-05-06T12:36:28.905Z,25.26
2016-05-06T12:37:28.816Z,25.3
2016-05-06T12:38:28.818Z,25.24
2016-05-06T12:39:28.913Z,25.3
2016-05-06T12:40:28.949Z,25.29
2016-05-06T12:41:30.294Z,25.37
2016-05-06T12:42:28.859Z,25.41
2016-05-06T12:43:28.550Z,25.39
2016-05-06T12:44:28.381Z,25.39
2016-05-06T12:45:28.477Z,25.33
2016-05-06T12:46:28.417Z,25.31
2016-05-06T12:47:28.373Z,25.36
2016-05-06T12:48:28.532Z,25.41
2016-05-06T12:49:31.301Z,25.44
2016-05-06T12:50:31.273Z,25.43
2016-05-06T12:51:28.243Z,25.43
2016-05-06T12:52:28.168Z,25.44
2016-05-06T12:53:39.951Z,25.49
2016-05-06T12:54:35.548Z,25.66